createdAt,value
2019-04-26T00:00:10.088Z,1002.59
2019-04-26T00:01:10.010Z,1002.61
2019-04-26T00:02:09.950Z,1002.61
2019-04-26T00:03:10.224Z,1002.54
2019-04-26T00:04:10.200Z,1002.53
2019-04-26T00:05:10.167Z,1002.51
2019-04-26T00:06:10.198Z,1002.49
2019-04-26T00:07:09.675Z,1002.44
2019-04-26T00:08:09.290Z,1002.46
2019-04-26T00:09:09.412Z,1002.45
2019-04-26T00:10:10.352Z,1002.42
2019-04-26T00:11:11.912Z,1002.44
2019-04-26T00:12:09.835Z,1002.40
2019-04-26T00:13:09.844Z,1002.34
2019-04-26T00:14:09.872Z,1002.34
2019-04-26T00:15:10.085Z,1002.32
2019-04-26T00:16:08.979Z,1002.32
2019-04-26T00:17:09.240Z,1002.29
2019-04-26T00:18:08.961Z,1002.34
2019-04-26T00:19:09.418Z,1002.34
2019-04-26T00:20:08.932Z,1002.30
2019-04-26T00:21:09.615Z,1002.31
2019-04-26T00:22:08.916Z,1002.28
2019-04-26T00:23:10.626Z,1002.26
2019-04-26T00:24:08.914Z,1002.23
2019-04-26T00:25:08.903Z,1002.26
2019-04-26T00:26:08.897Z,1002.22
2019-04-26T00:27:08.873Z,1002.19
2019-04-26T00:28:08.849Z,1002.14
2019-04-26T00:29:08.865Z,1002.20
2019-04-26T00:30:08.847Z,1002.15
2019-04-26T00:31:08.812Z,1002.15
2019-04-26T00:32:08.796Z,1002.10
2019-04-26T00:33:08.786Z,1002.17
2019-04-26T00:34:08.774Z,1002.19
2019-04-26T00:35:08.797Z,1002.22
2019-04-26T00:36:08.756Z,1002.16
2019-04-26T00:37:08.742Z,1002.16
2019-04-26T00:38:08.734Z,1002.18
2019-04-26T00:39:08.719Z,1002.18
2019-04-26T00:40:08.744Z,1002.21
2019-04-26T00:41:08.694Z,1002.28
2019-04-26T00:42:08.714Z,1002.25
2019-04-26T00:43:08.669Z,1002.22
2019-04-26T00:44:08.661Z,1002.21
2019-04-26T00:45:08.688Z,1002.18
2019-04-26T00:46:08.638Z,1002.16
2019-04-26T00:47:08.626Z,1002.15
2019-04-26T00:48:08.613Z,1002.18
2019-04-26T00:49:08.636Z,1002.15
2019-04-26T00:50:08.682Z,1002.12
2019-04-26T00:51:08.585Z,1002.10
2019-04-26T00:52:08.583Z,1002.13
2019-04-26T00:53:08.563Z,1002.08
2019-04-26T00:54:08.546Z,1002.20
2019-04-26T00:55:08.536Z,1002.22
2019-04-26T00:56:08.565Z,1002.28
2019-04-26T00:57:08.528Z,1002.32
2019-04-26T00:58:08.516Z,1002.36
2019-04-26T00:59:08.498Z,1002.41
2019-04-26T01:00:08.481Z,1002.42
2019-04-26T01:01:08.504Z,1002.43
2019-04-26T01:02:08.476Z,1002.48
2019-04-26T01:03:08.460Z,1002.48
2019-04-26T01:04:08.434Z,1002.51
2019-04-26T01:05:08.423Z,1002.57
2019-04-26T01:06:08.439Z,1002.52
2019-04-26T01:07:08.402Z,1002.50
2019-04-26T01:08:08.388Z,1002.48
2019-04-26T01:09:08.384Z,1002.49
2019-04-26T01:10:08.376Z,1002.50
2019-04-26T01:11:08.375Z,1002.47
2019-04-26T01:12:08.346Z,1002.45
2019-04-26T01:13:08.342Z,1002.39
2019-04-26T01:14:08.329Z,1002.36
2019-04-26T01:15:08.344Z,1002.35
2019-04-26T01:16:08.504Z,1002.35
2019-04-26T01:17:08.288Z,1002.37
2019-04-26T01:18:08.379Z,1002.38
2019-04-26T01:19:08.264Z,1002.43
2019-04-26T01:20:08.253Z,1002.48
2019-04-26T01:21:08.284Z,1002.51
2019-04-26T01:22:08.398Z,1002.58
2019-04-26T01:23:08.220Z,1002.59
2019-04-26T01:24:08.296Z,1002.65
2019-04-26T01:25:08.198Z,1002.69
2019-04-26T01:26:08.188Z,1002.74
2019-04-26T01:27:08.199Z,1002.77
2019-04-26T01:28:08.168Z,1002.81
2019-04-26T01:29:08.173Z,1002.84
2019-04-26T01:30:08.148Z,1002.92
2019-04-26T01:31:08.159Z,1002.95
2019-04-26T01:32:08.148Z,1002.97
2019-04-26T01:33:08.117Z,1002.96
2019-04-26T01:34:08.097Z,1002.93
2019-04-26T01:35:08.092Z,1002.88
2019-04-26T01:36:13.115Z,1002.85
2019-04-26T01:37:09.098Z,1002.75
2019-04-26T01:38:08.055Z,1002.67
2019-04-26T01:39:08.069Z,1002.62
2019-04-26T01:40:08.031Z,1002.62
2019-04-26T01:41:08.026Z,1002.64
2019-04-26T01:42:08.040Z,1002.68
2019-04-26T01:43:08.002Z,1002.70
2019-04-26T01:44:07.991Z,1002.71
2019-04-26T01:45:07.983Z,1002.71
2019-04-26T01:46:07.969Z,1002.74
2019-04-26T01:47:07.983Z,1002.75
2019-04-26T01:48:07.942Z,1002.77
2019-04-26T01:49:07.938Z,1002.82
2019-04-26T01:50:07.926Z,1002.84
2019-04-26T01:51:07.912Z,1002.88
2019-04-26T01:52:07.944Z,1002.93
2019-04-26T01:53:07.888Z,1002.96
2019-04-26T01:54:07.881Z,1003.03
2019-04-26T01:55:07.903Z,1003.00
2019-04-26T01:56:07.903Z,1003.05
2019-04-26T01:57:07.883Z,1003.08
2019-04-26T01:58:07.833Z,1003.10
2019-04-26T01:59:07.827Z,1003.04
2019-04-26T02:00:07.818Z,1002.95
2019-04-26T02:01:07.807Z,1002.92
2019-04-26T02:02:07.831Z,1002.81
2019-04-26T02:03:07.829Z,1002.83
2019-04-26T02:04:07.779Z,1002.82
2019-04-26T02:05:07.784Z,1002.88
2019-04-26T02:06:07.762Z,1002.85
2019-04-26T02:07:07.739Z,1002.85
2019-04-26T02:08:07.767Z,1002.90
2019-04-26T02:09:07.715Z,1002.81
2019-04-26T02:10:07.715Z,1002.69
2019-04-26T02:11:07.694Z,1002.71
2019-04-26T02:12:07.680Z,1002.73
2019-04-26T02:13:07.696Z,1002.74
2019-04-26T02:14:07.657Z,1002.80
2019-04-26T02:15:07.648Z,1002.83
2019-04-26T02:16:07.635Z,1002.89
2019-04-26T02:17:07.631Z,1002.91
2019-04-26T02:18:07.664Z,1002.90
2019-04-26T02:19:07.638Z,1002.95
2019-04-26T02:20:07.593Z,1002.93
2019-04-26T02:21:07.581Z,1002.93
2019-04-26T02:22:07.624Z,1002.96
2019-04-26T02:23:07.634Z,1002.99
2019-04-26T02:24:07.547Z,1002.97
2019-04-26T02:25:07.588Z,1003.02
2019-04-26T02:26:07.529Z,1003.06
2019-04-26T02:27:07.569Z,1003.05
2019-04-26T02:28:07.536Z,1003.09
2019-04-26T02:29:07.616Z,1003.06
2019-04-26T02:30:07.482Z,1003.08
2019-04-26T02:31:07.567Z,1003.12
2019-04-26T02:32:07.467Z,1003.15
2019-04-26T02:33:07.489Z,1003.17
2019-04-26T02:34:07.466Z,1003.12
2019-04-26T02:35:07.452Z,1003.17
2019-04-26T02:36:07.422Z,1003.27
2019-04-26T02:37:07.480Z,1003.29
2019-04-26T02:38:07.400Z,1003.31
2019-04-26T02:39:07.446Z,1003.32
2019-04-26T02:40:07.370Z,1003.32
2019-04-26T02:41:07.381Z,1003.33
2019-04-26T02:42:07.349Z,1003.30
2019-04-26T02:43:07.379Z,1003.29
2019-04-26T02:44:07.358Z,1003.28
2019-04-26T02:45:07.319Z,1003.23
2019-04-26T02:46:07.302Z,1003.23
2019-04-26T02:47:07.292Z,1003.22
2019-04-26T02:48:07.281Z,1003.22
2019-04-26T02:49:07.334Z,1003.29
2019-04-26T02:50:07.292Z,1003.26
2019-04-26T02:51:07.258Z,1003.23
2019-04-26T02:52:07.238Z,1003.12
2019-04-26T02:53:07.236Z,1003.11
2019-04-26T02:54:07.244Z,1003.12
2019-04-26T02:55:07.237Z,1003.04
2019-04-26T02:56:07.209Z,1002.99
2019-04-26T02:57:07.185Z,1002.98
2019-04-26T02:58:07.174Z,1002.98
2019-04-26T02:59:07.206Z,1003.01
2019-04-26T03:00:07.160Z,1003.05
2019-04-26T03:01:07.137Z,1003.07
2019-04-26T03:02:07.164Z,1003.14
2019-04-26T03:03:07.118Z,1003.12
2019-04-26T03:04:07.112Z,1003.22
2019-04-26T03:05:07.121Z,1003.34
2019-04-26T03:06:07.087Z,1003.31
2019-04-26T03:07:07.072Z,1003.22
2019-04-26T03:08:07.067Z,1003.25
2019-04-26T03:09:07.082Z,1003.17
2019-04-26T03:10:07.066Z,1003.14
2019-04-26T03:11:07.030Z,1003.06
2019-04-26T03:12:07.024Z,1003.00
2019-04-26T03:13:07.021Z,1002.96
2019-04-26T03:14:07.006Z,1002.94
2019-04-26T03:15:13.893Z,1003.00
2019-04-26T03:16:08.086Z,1003.05
2019-04-26T03:17:06.961Z,1003.09
2019-04-26T03:18:06.968Z,1003.11
2019-04-26T03:19:06.944Z,1003.16
2019-04-26T03:20:06.988Z,1003.18
2019-04-26T03:21:06.920Z,1003.11
2019-04-26T03:22:06.918Z,1003.05
2019-04-26T03:23:06.902Z,1003.00
2019-04-26T03:24:06.895Z,1002.99
2019-04-26T03:25:06.922Z,1003.04
2019-04-26T03:26:06.862Z,1003.03
2019-04-26T03:27:06.854Z,1003.04
2019-04-26T03:28:06.851Z,1003.05
2019-04-26T03:29:06.830Z,1002.99
2019-04-26T03:30:19.349Z,1002.92
2019-04-26T03:31:07.843Z,1002.86
2019-04-26T03:32:06.910Z,1002.81
2019-04-26T03:33:06.839Z,1002.77
2019-04-26T03:34:06.946Z,1002.72
2019-04-26T03:35:06.798Z,1002.65
2019-04-26T03:36:06.790Z,1002.67
2019-04-26T03:37:20.454Z,1002.73
2019-04-26T03:38:07.751Z,1002.77
2019-04-26T03:39:06.725Z,1002.82
2019-04-26T03:40:06.737Z,1002.86
2019-04-26T03:41:06.734Z,1002.90
2019-04-26T03:42:06.691Z,1002.91
2019-04-26T03:43:06.681Z,1002.89
2019-04-26T03:44:06.682Z,1002.95
2019-04-26T03:45:06.661Z,1002.92
2019-04-26T03:46:06.681Z,1002.90
2019-04-26T03:47:06.636Z,1002.90
2019-04-26T03:48:06.633Z,1002.90
2019-04-26T03:49:06.617Z,1002.94
2019-04-26T03:50:06.614Z,1003.00
2019-04-26T03:51:06.625Z,1003.05
2019-04-26T03:52:06.581Z,1003.09
2019-04-26T03:53:06.580Z,1003.18
2019-04-26T03:54:06.567Z,1003.25
2019-04-26T03:55:06.555Z,1003.32
2019-04-26T03:56:06.575Z,1003.33
2019-04-26T03:57:06.533Z,1003.27
2019-04-26T03:58:06.518Z,1003.34
2019-04-26T03:59:06.509Z,1003.31
2019-04-26T04:00:06.499Z,1003.37
2019-04-26T04:01:06.512Z,1003.38
2019-04-26T04:02:06.481Z,1003.45
2019-04-26T04:03:06.476Z,1003.52
2019-04-26T04:04:06.451Z,1003.49
2019-04-26T04:05:06.439Z,1003.54
2019-04-26T04:06:06.458Z,1003.49
2019-04-26T04:07:06.423Z,1003.49
2019-04-26T04:08:06.413Z,1003.50
2019-04-26T04:09:06.409Z,1003.47
2019-04-26T04:10:06.383Z,1003.51
2019-04-26T04:11:06.407Z,1003.50
2019-04-26T04:12:11.796Z,1003.57
2019-04-26T04:13:07.360Z,1003.60
2019-04-26T04:14:06.532Z,1003.54
2019-04-26T04:15:06.333Z,1003.62
2019-04-26T04:16:06.325Z,1003.62
2019-04-26T04:17:06.354Z,1003.63
2019-04-26T04:18:06.293Z,1003.64
2019-04-26T04:19:06.283Z,1003.63
2019-04-26T04:20:06.273Z,1003.59
2019-04-26T04:21:06.280Z,1003.60
2019-04-26T04:22:06.286Z,1003.58
2019-04-26T04:23:06.475Z,1003.62
2019-04-26T04:24:06.234Z,1003.58
2019-04-26T04:25:06.327Z,1003.57
2019-04-26T04:26:06.209Z,1003.52
2019-04-26T04:27:06.297Z,1003.53
2019-04-26T04:28:06.190Z,1003.57
2019-04-26T04:29:06.196Z,1003.58
2019-04-26T04:30:06.160Z,1003.59
2019-04-26T04:31:06.162Z,1003.61
2019-04-26T04:32:06.168Z,1003.63
2019-04-26T04:33:06.138Z,1003.65
2019-04-26T04:34:06.132Z,1003.64
2019-04-26T04:35:06.870Z,1003.61
2019-04-26T04:36:06.105Z,1003.58
2019-04-26T04:37:06.151Z,1003.55
2019-04-26T04:38:09.480Z,1003.50
2019-04-26T04:39:12.445Z,1003.51
2019-04-26T04:40:07.056Z,1003.54
2019-04-26T04:41:08.367Z,1003.61
2019-04-26T04:42:06.060Z,1003.63
2019-04-26T04:43:06.163Z,1003.64
2019-04-26T04:44:06.011Z,1003.62
2019-04-26T04:45:06.002Z,1003.57
2019-04-26T04:46:06.102Z,1003.52
2019-04-26T04:47:22.664Z,1003.47
2019-04-26T04:48:06.981Z,1003.44
2019-04-26T04:49:05.960Z,1003.39
2019-04-26T04:50:06.080Z,1003.42
2019-04-26T04:51:06.154Z,1003.45
2019-04-26T04:52:05.942Z,1003.51
2019-04-26T04:53:05.906Z,1003.53
2019-04-26T04:54:05.926Z,1003.54
2019-04-26T04:55:07.967Z,1003.55
2019-04-26T04:56:05.873Z,1003.57
2019-04-26T04:57:05.896Z,1003.60
2019-04-26T04:58:05.856Z,1003.58
2019-04-26T04:59:05.838Z,1003.64
2019-04-26T05:00:05.829Z,1003.67
2019-04-26T05:01:05.822Z,1003.82
2019-04-26T05:02:05.910Z,1003.78
2019-04-26T05:03:05.992Z,1003.83
2019-04-26T05:04:06.055Z,1003.86
2019-04-26T05:05:05.777Z,1003.92
2019-04-26T05:06:07.641Z,1003.91
2019-04-26T05:07:05.759Z,1003.88
2019-04-26T05:08:07.125Z,1003.92
2019-04-26T05:09:05.765Z,1003.94
2019-04-26T05:10:05.726Z,1003.96
2019-04-26T05:11:05.708Z,1004.00
2019-04-26T05:12:05.692Z,1004.00
2019-04-26T05:13:05.723Z,1004.07
2019-04-26T05:14:05.685Z,1004.09
2019-04-26T05:15:05.671Z,1004.13
2019-04-26T05:16:05.657Z,1004.09
2019-04-26T05:17:05.640Z,1004.10
2019-04-26T05:18:05.653Z,1004.13
2019-04-26T05:19:05.614Z,1004.10
2019-04-26T05:20:05.634Z,1004.02
2019-04-26T05:21:05.601Z,1003.97
2019-04-26T05:22:05.591Z,1003.90
2019-04-26T05:23:05.581Z,1003.90
2019-04-26T05:24:05.562Z,1003.89
2019-04-26T05:25:05.599Z,1003.93
2019-04-26T05:26:05.537Z,1003.92
2019-04-26T05:27:05.530Z,1003.83
2019-04-26T05:28:05.549Z,1003.85
2019-04-26T05:29:05.509Z,1003.82
2019-04-26T05:30:05.499Z,1003.80
2019-04-26T05:31:05.542Z,1003.85
2019-04-26T05:32:05.482Z,1003.79
2019-04-26T05:33:05.489Z,1003.80
2019-04-26T05:34:05.473Z,1003.80
2019-04-26T05:35:05.448Z,1003.84
2019-04-26T05:36:05.466Z,1003.93
2019-04-26T05:37:05.415Z,1003.93
2019-04-26T05:38:17.757Z,1004.02
2019-04-26T05:39:06.443Z,1003.99
2019-04-26T05:40:05.417Z,1003.98
2019-04-26T05:41:05.396Z,1003.97
2019-04-26T05:42:05.366Z,1004.01
2019-04-26T05:43:05.348Z,1004.02
2019-04-26T05:44:05.438Z,1004.06
2019-04-26T05:45:05.339Z,1004.06
2019-04-26T05:46:05.317Z,1004.15
2019-04-26T05:47:05.313Z,1004.18
2019-04-26T05:48:11.459Z,1004.21
2019-04-26T05:49:06.310Z,1004.22
2019-04-26T05:50:05.275Z,1004.21
2019-04-26T05:51:05.277Z,1004.23
2019-04-26T05:52:05.259Z,1004.22
2019-04-26T05:53:05.256Z,1004.27
2019-04-26T05:54:05.282Z,1004.26
2019-04-26T05:55:05.284Z,1004.33
2019-04-26T05:56:05.243Z,1004.32
2019-04-26T05:57:05.194Z,1004.35
2019-04-26T05:58:05.232Z,1004.30
2019-04-26T05:59:05.177Z,1004.26
2019-04-26T06:00:05.197Z,1004.23
2019-04-26T06:01:05.150Z,1004.24
2019-04-26T06:02:05.134Z,1004.22
2019-04-26T06:03:05.124Z,1004.23
2019-04-26T06:04:05.113Z,1004.20
2019-04-26T06:05:05.154Z,1004.21
2019-04-26T06:06:05.525Z,1004.23
2019-04-26T06:07:05.086Z,1004.19
2019-04-26T06:08:05.067Z,1004.20
2019-04-26T06:09:05.057Z,1004.20
2019-04-26T06:10:05.067Z,1004.25
2019-04-26T06:11:05.037Z,1004.26
2019-04-26T06:12:05.058Z,1004.31
2019-04-26T06:13:05.015Z,1004.32
2019-04-26T06:14:04.998Z,1004.36
2019-04-26T06:15:04.987Z,1004.35
2019-04-26T06:16:05.006Z,1004.40
2019-04-26T06:17:04.971Z,1004.43
2019-04-26T06:18:04.963Z,1004.41
2019-04-26T06:19:04.953Z,1004.41
2019-04-26T06:20:04.973Z,1004.43
2019-04-26T06:21:04.929Z,1004.41
2019-04-26T06:22:04.912Z,1004.44
2019-04-26T06:23:04.899Z,1004.45
2019-04-26T06:24:04.898Z,1004.45
2019-04-26T06:25:04.909Z,1004.46
2019-04-26T06:27:13.533Z,1004.46
2019-04-26T06:28:05.856Z,1004.52
2019-04-26T06:29:05.340Z,1004.49
2019-04-26T06:30:04.851Z,1004.53
2019-04-26T06:31:04.819Z,1004.51
2019-04-26T06:32:04.798Z,1004.45
2019-04-26T06:33:06.243Z,1004.44
2019-04-26T06:34:04.816Z,1004.48
2019-04-26T06:35:04.768Z,1004.51
2019-04-26T06:36:04.806Z,1004.53
2019-04-26T06:37:04.745Z,1004.55
2019-04-26T06:38:04.737Z,1004.56
2019-04-26T06:39:04.727Z,1004.51
2019-04-26T06:40:04.723Z,1004.42
2019-04-26T06:41:04.741Z,1004.42
2019-04-26T06:42:05.177Z,1004.41
2019-04-26T06:43:05.154Z,1004.45
2019-04-26T06:45:05.800Z,1004.48
2019-04-26T06:46:04.799Z,1004.49
2019-04-26T06:47:04.777Z,1004.50
2019-04-26T06:48:04.736Z,1004.52
2019-04-26T06:49:05.472Z,1004.53
2019-04-26T06:50:05.559Z,1004.56
2019-04-26T06:51:04.910Z,1004.59
2019-04-26T06:52:05.049Z,1004.61
2019-04-26T06:53:04.631Z,1004.62
2019-04-26T06:54:05.530Z,1004.62
2019-04-26T06:55:04.553Z,1004.65
2019-04-26T06:56:05.042Z,1004.65
2019-04-26T06:57:10.675Z,1004.70
2019-04-26T06:58:05.509Z,1004.70
2019-04-26T06:59:04.502Z,1004.75
2019-04-26T07:00:04.508Z,1004.78
2019-04-26T07:01:05.403Z,1004.73
2019-04-26T07:02:04.498Z,1004.74
2019-04-26T07:03:05.495Z,1004.71
2019-04-26T07:04:04.479Z,1004.68
2019-04-26T07:05:04.809Z,1004.65
2019-04-26T07:06:04.582Z,1004.68
2019-04-26T07:07:04.639Z,1004.69
2019-04-26T07:08:05.036Z,1004.70
2019-04-26T07:09:05.370Z,1004.79
2019-04-26T07:10:04.427Z,1004.77
2019-04-26T07:11:04.806Z,1004.76
2019-04-26T07:12:05.190Z,1004.79
2019-04-26T07:13:04.341Z,1004.78
2019-04-26T07:14:04.786Z,1004.79
2019-04-26T07:15:04.318Z,1004.80
2019-04-26T07:16:17.773Z,1004.83
2019-04-26T07:17:05.320Z,1004.85
2019-04-26T07:18:04.441Z,1004.92
2019-04-26T07:19:04.270Z,1004.98
2019-04-26T07:20:04.838Z,1005.02
2019-04-26T07:21:04.547Z,1005.09
2019-04-26T07:22:04.266Z,1005.08
2019-04-26T07:23:04.237Z,1005.14
2019-04-26T07:24:04.220Z,1005.07
2019-04-26T07:25:04.210Z,1005.08
2019-04-26T07:26:04.213Z,1005.11
2019-04-26T07:27:05.031Z,1005.11
2019-04-26T07:28:09.018Z,1005.14
2019-04-26T07:29:05.165Z,1005.15
2019-04-26T07:30:05.181Z,1005.19
2019-04-26T07:31:04.194Z,1005.12
2019-04-26T07:32:05.244Z,1005.08
2019-04-26T07:33:04.214Z,1005.06
2019-04-26T07:34:05.150Z,1005.01
2019-04-26T07:35:04.592Z,1005.03
2019-04-26T07:36:05.372Z,1004.97
2019-04-26T07:37:04.646Z,1004.93
2019-04-26T07:38:04.823Z,1004.93
2019-04-26T07:39:15.679Z,1004.84
2019-04-26T07:40:05.044Z,1004.82
2019-04-26T07:41:05.140Z,1004.86
2019-04-26T07:42:05.196Z,1004.88
2019-04-26T07:43:04.013Z,1004.80
2019-04-26T07:44:04.101Z,1004.84
2019-04-26T07:45:03.989Z,1004.80
2019-04-26T07:46:04.115Z,1004.82
2019-04-26T07:47:04.179Z,1004.83
2019-04-26T07:48:03.964Z,1004.87
2019-04-26T07:49:04.207Z,1004.81
2019-04-26T07:50:05.045Z,1004.87
2019-04-26T07:51:04.410Z,1004.90
2019-04-26T07:52:04.313Z,1004.92
2019-04-26T07:53:04.971Z,1004.97
2019-04-26T07:54:05.002Z,1005.03
2019-04-26T07:55:04.874Z,1005.09
2019-04-26T07:56:04.928Z,1005.15
2019-04-26T07:57:04.601Z,1005.26
2019-04-26T07:58:05.187Z,1005.27
2019-04-26T07:59:05.586Z,1005.30
2019-04-26T08:00:04.251Z,1005.33
2019-04-26T08:01:04.043Z,1005.34
2019-04-26T08:02:05.047Z,1005.36
2019-04-26T08:03:04.155Z,1005.33
2019-04-26T08:04:04.334Z,1005.35
2019-04-26T08:05:04.725Z,1005.36
2019-04-26T08:06:04.533Z,1005.34
2019-04-26T08:07:04.863Z,1005.40
2019-04-26T08:08:04.228Z,1005.38
2019-04-26T08:09:04.771Z,1005.40
2019-04-26T08:10:04.996Z,1005.40
2019-04-26T08:11:04.578Z,1005.41
2019-04-26T08:12:05.000Z,1005.40
2019-04-26T08:13:05.008Z,1005.46
2019-04-26T08:14:04.640Z,1005.44
2019-04-26T08:15:04.718Z,1005.42
2019-04-26T08:16:04.842Z,1005.45
2019-04-26T08:17:04.799Z,1005.45
2019-04-26T08:18:03.870Z,1005.39
2019-04-26T08:19:03.974Z,1005.41
2019-04-26T08:20:06.908Z,1005.39
2019-04-26T08:21:09.957Z,1005.42
2019-04-26T08:22:14.880Z,1005.38
2019-04-26T08:23:08.631Z,1005.38
2019-04-26T08:24:05.205Z,1005.38
2019-04-26T08:25:03.573Z,1005.39
2019-04-26T08:26:03.541Z,1005.43
2019-04-26T08:27:13.755Z,1005.43
2019-04-26T08:28:05.618Z,1005.49
2019-04-26T08:29:03.506Z,1005.52
2019-04-26T08:30:07.632Z,1005.53
2019-04-26T08:31:05.938Z,1005.60
2019-04-26T08:32:03.476Z,1005.65
2019-04-26T08:33:07.569Z,1005.66
2019-04-26T08:34:04.452Z,1005.71
2019-04-26T08:35:08.239Z,1005.75
2019-04-26T08:36:04.476Z,1005.75
2019-04-26T08:37:03.442Z,1005.79
2019-04-26T08:38:07.967Z,1005.80
2019-04-26T08:39:04.486Z,1005.81
2019-04-26T08:40:03.381Z,1005.85
2019-04-26T08:41:05.010Z,1005.86
2019-04-26T08:42:03.378Z,1005.88
2019-04-26T08:43:03.350Z,1005.89
2019-04-26T08:44:05.574Z,1005.92
2019-04-26T08:45:04.383Z,1005.93
2019-04-26T08:46:04.341Z,1005.95
2019-04-26T08:47:05.983Z,1006.02
2019-04-26T08:48:04.289Z,1005.98
2019-04-26T08:49:06.362Z,1005.96
2019-04-26T08:50:03.271Z,1006.00
2019-04-26T08:51:03.342Z,1006.07
2019-04-26T08:52:13.921Z,1006.02
2019-04-26T08:53:04.241Z,1006.01
2019-04-26T08:54:03.237Z,1006.01
2019-04-26T08:55:03.217Z,1006.00
2019-04-26T08:56:03.241Z,1005.96
2019-04-26T08:57:03.246Z,1006.00
2019-04-26T08:58:03.179Z,1005.99
2019-04-26T08:59:03.165Z,1005.94
2019-04-26T09:00:03.172Z,1005.96
2019-04-26T09:01:03.150Z,1005.97
2019-04-26T09:02:03.180Z,1005.98
2019-04-26T09:03:11.261Z,1006.02
2019-04-26T09:04:04.159Z,1006.01
2019-04-26T09:05:03.104Z,1006.00
2019-04-26T09:06:03.099Z,1006.01
2019-04-26T09:07:03.135Z,1006.04
2019-04-26T09:08:04.032Z,1006.01
2019-04-26T09:09:03.057Z,1006.01
2019-04-26T09:10:10.704Z,1006.02
2019-04-26T09:11:04.060Z,1006.04
2019-04-26T09:12:03.833Z,1006.08
2019-04-26T09:13:03.013Z,1006.11
2019-04-26T09:14:02.996Z,1006.15
2019-04-26T09:15:03.003Z,1006.10
2019-04-26T09:16:03.093Z,1006.10
2019-04-26T09:17:03.000Z,1006.08
2019-04-26T09:18:06.133Z,1006.06
2019-04-26T09:19:02.951Z,1005.98
2019-04-26T09:20:07.017Z,1005.90
2019-04-26T09:21:02.924Z,1005.87
2019-04-26T09:22:12.917Z,1005.80
2019-04-26T09:23:04.998Z,1005.82
2019-04-26T09:24:02.898Z,1005.78
2019-04-26T09:25:02.882Z,1005.80
2019-04-26T09:26:02.907Z,1005.81
2019-04-26T09:27:02.894Z,1005.82
2019-04-26T09:28:02.888Z,1005.79
2019-04-26T09:29:02.834Z,1005.80
2019-04-26T09:30:05.157Z,1005.82
2019-04-26T09:31:02.844Z,1005.83
2019-04-26T09:32:02.796Z,1005.88
2019-04-26T09:33:03.055Z,1005.91
2019-04-26T09:34:06.391Z,1006.02
2019-04-26T09:35:03.760Z,1006.07
2019-04-26T09:36:02.755Z,1006.15
2019-04-26T09:37:02.773Z,1006.19
2019-04-26T09:38:02.741Z,1006.21
2019-04-26T09:39:03.839Z,1006.18
2019-04-26T09:40:10.193Z,1006.19
2019-04-26T09:41:03.696Z,1006.18
2019-04-26T09:42:05.979Z,1006.13
2019-04-26T09:43:03.701Z,1006.17
2019-04-26T09:44:02.666Z,1006.18
2019-04-26T09:45:02.654Z,1006.20
2019-04-26T09:46:02.665Z,1006.24
2019-04-26T09:47:02.666Z,1006.22
2019-04-26T09:48:02.658Z,1006.20
2019-04-26T09:49:03.042Z,1006.23
2019-04-26T09:50:02.601Z,1006.19
2019-04-26T09:51:02.629Z,1006.16
2019-04-26T09:52:02.573Z,1006.20
2019-04-26T09:53:02.595Z,1006.17
2019-04-26T09:54:02.557Z,1006.20
2019-04-26T09:55:02.544Z,1006.16
2019-04-26T09:56:02.553Z,1006.19
2019-04-26T09:57:02.517Z,1006.21
2019-04-26T09:58:02.550Z,1006.19
2019-04-26T09:59:05.690Z,1006.17
2019-04-26T10:00:02.492Z,1006.17
2019-04-26T10:01:02.485Z,1006.16
2019-04-26T10:02:02.472Z,1006.17
2019-04-26T10:03:05.437Z,1006.14
2019-04-26T10:04:03.444Z,1006.14
2019-04-26T10:05:02.429Z,1006.12
2019-04-26T10:06:02.425Z,1006.13
2019-04-26T10:07:03.291Z,1006.10
2019-04-26T10:08:02.449Z,1006.07
2019-04-26T10:09:02.392Z,1006.09
2019-04-26T10:10:02.376Z,1006.09
2019-04-26T10:11:05.699Z,1006.09
2019-04-26T10:12:03.351Z,1006.10
2019-04-26T10:13:02.366Z,1006.12
2019-04-26T10:14:02.332Z,1006.15
2019-04-26T10:15:02.364Z,1006.11
2019-04-26T10:16:02.869Z,1006.14
2019-04-26T10:17:02.311Z,1006.14
2019-04-26T10:18:02.323Z,1006.16
2019-04-26T10:19:02.285Z,1006.14
2019-04-26T10:20:02.266Z,1006.17
2019-04-26T10:21:02.257Z,1006.11
2019-04-26T10:22:02.251Z,1006.05
2019-04-26T10:23:02.291Z,1006.06
2019-04-26T10:24:02.224Z,1006.04
2019-04-26T10:25:07.077Z,1006.00
2019-04-26T10:26:03.206Z,1005.95
2019-04-26T10:27:03.451Z,1005.97
2019-04-26T10:28:02.268Z,1005.95
2019-04-26T10:29:02.200Z,1005.93
2019-04-26T10:30:08.018Z,1005.93
2019-04-26T10:31:03.149Z,1005.94
2019-04-26T10:32:02.132Z,1005.89
2019-04-26T10:33:03.306Z,1005.92
2019-04-26T10:34:02.146Z,1005.86
2019-04-26T10:35:02.110Z,1005.94
2019-04-26T10:36:02.094Z,1005.98
2019-04-26T10:37:06.230Z,1005.99
2019-04-26T10:38:03.071Z,1005.95
2019-04-26T10:39:02.280Z,1006.03
2019-04-26T10:40:02.058Z,1005.99
2019-04-26T10:41:02.046Z,1006.06
2019-04-26T10:42:02.039Z,1006.03
2019-04-26T10:43:02.011Z,1006.09
2019-04-26T10:44:02.029Z,1006.06
2019-04-26T10:45:02.001Z,1006.00
2019-04-26T10:46:01.983Z,1006.02
2019-04-26T10:47:04.409Z,1006.01
2019-04-26T10:48:01.961Z,1006.01
2019-04-26T10:49:08.965Z,1006.04
2019-04-26T10:50:02.946Z,1005.99
2019-04-26T10:51:03.365Z,1005.99
2019-04-26T10:52:01.930Z,1005.99
2019-04-26T10:53:01.908Z,1005.99
2019-04-26T10:54:05.931Z,1005.98
2019-04-26T10:55:02.896Z,1006.02
2019-04-26T10:56:01.874Z,1006.07
2019-04-26T10:57:01.859Z,1006.08
2019-04-26T10:58:01.851Z,1006.07
2019-04-26T10:59:01.894Z,1006.09
2019-04-26T11:00:01.824Z,1006.12
2019-04-26T11:01:01.815Z,1006.15
2019-04-26T11:02:01.815Z,1006.13
2019-04-26T11:03:04.623Z,1006.20
2019-04-26T11:04:01.821Z,1006.26
2019-04-26T11:05:01.795Z,1006.21
2019-04-26T11:06:01.759Z,1006.24
2019-04-26T11:07:02.246Z,1006.22
2019-04-26T11:08:01.737Z,1006.26
2019-04-26T11:09:01.757Z,1006.30
2019-04-26T11:10:03.046Z,1006.33
2019-04-26T11:11:01.704Z,1006.39
2019-04-26T11:12:01.704Z,1006.38
2019-04-26T11:13:01.691Z,1006.35
2019-04-26T11:14:01.715Z,1006.40
2019-04-26T11:15:01.679Z,1006.41
2019-04-26T11:16:02.361Z,1006.46
2019-04-26T11:17:02.636Z,1006.46
2019-04-26T11:18:01.630Z,1006.41
2019-04-26T11:19:02.258Z,1006.45
2019-04-26T11:20:01.707Z,1006.46
2019-04-26T11:21:01.594Z,1006.44
2019-04-26T11:22:01.600Z,1006.44
2019-04-26T11:23:01.572Z,1006.41
2019-04-26T11:24:01.576Z,1006.41
2019-04-26T11:25:01.581Z,1006.42
2019-04-26T11:26:02.824Z,1006.39
2019-04-26T11:27:01.539Z,1006.39
2019-04-26T11:28:01.538Z,1006.41
2019-04-26T11:29:01.504Z,1006.44
2019-04-26T11:30:11.163Z,1006.43
2019-04-26T11:31:02.499Z,1006.45
2019-04-26T11:32:02.684Z,1006.46
2019-04-26T11:33:01.464Z,1006.51
2019-04-26T11:34:05.565Z,1006.46
2019-04-26T11:35:01.516Z,1006.44
2019-04-26T11:36:03.280Z,1006.40
2019-04-26T11:37:02.439Z,1006.41
2019-04-26T11:38:01.515Z,1006.39
2019-04-26T11:39:05.347Z,1006.36
2019-04-26T11:40:02.458Z,1006.33
2019-04-26T11:41:06.119Z,1006.28
2019-04-26T11:42:02.374Z,1006.21
2019-04-26T11:43:01.372Z,1006.24
2019-04-26T11:44:01.347Z,1006.23
2019-04-26T11:45:06.409Z,1006.20
2019-04-26T11:46:04.387Z,1006.15
2019-04-26T11:47:03.271Z,1006.23
2019-04-26T11:48:03.285Z,1006.16
2019-04-26T11:49:03.153Z,1006.26
2019-04-26T11:50:02.452Z,1006.22
2019-04-26T11:51:01.264Z,1006.22
2019-04-26T11:52:02.917Z,1006.25
2019-04-26T11:53:01.240Z,1006.25
2019-04-26T11:54:01.236Z,1006.21
2019-04-26T11:55:01.249Z,1006.26
2019-04-26T11:56:04.644Z,1006.20
2019-04-26T11:57:01.204Z,1006.20
2019-04-26T11:58:01.192Z,1006.13
2019-04-26T11:59:01.180Z,1006.12
2019-04-26T12:00:05.017Z,1006.07
2019-04-26T12:01:01.163Z,1006.12
2019-04-26T12:02:01.145Z,1006.11
2019-04-26T12:03:01.137Z,1006.15
2019-04-26T12:04:01.134Z,1006.17
2019-04-26T12:05:01.149Z,1006.21
2019-04-26T12:06:01.108Z,1006.24
2019-04-26T12:07:01.100Z,1006.29